createdAt,value
2019-01-26T00:00:55.985Z,92.52
2019-01-26T00:03:24.623Z,91.89
2019-01-26T00:05:53.325Z,93.31
2019-01-26T00:08:21.981Z,91.25
2019-01-26T00:10:50.384Z,90.59
2019-01-26T00:13:18.774Z,93.22
2019-01-26T00:15:47.425Z,92.11
2019-01-26T00:18:15.829Z,90.50
2019-01-26T00:20:44.595Z,91.31
2019-01-26T00:23:13.277Z,91.15
2019-01-26T00:25:41.685Z,91.06
2019-01-26T00:28:10.071Z,90.31
2019-01-26T00:30:38.630Z,91.45
2019-01-26T00:33:07.034Z,90.59
2019-01-26T00:35:35.680Z,91.14
2019-01-26T00:38:04.778Z,91.04
2019-01-26T00:40:33.256Z,92.93
2019-01-26T00:43:01.649Z,95.34
2019-01-26T00:45:30.043Z,93.30
2019-01-26T00:47:58.451Z,92.60
2019-01-26T00:50:27.186Z,95.37
2019-01-26T00:52:55.869Z,96.86
2019-01-26T00:55:24.279Z,100.00
2019-01-26T00:57:52.671Z,100.00
2019-01-26T01:00:22.004Z,100.00
2019-01-26T01:02:50.488Z,100.00
2019-01-26T01:05:18.881Z,100.00
2019-01-26T01:07:47.947Z,100.00
2019-01-26T01:10:18.773Z,100.00
2019-01-26T01:12:47.544Z,100.00
2019-01-26T01:15:20.847Z,100.00
2019-01-26T01:17:49.588Z,100.00
2019-01-26T01:20:19.826Z,100.00
2019-01-26T01:22:48.283Z,100.00
2019-01-26T01:25:16.767Z,100.00
2019-01-26T01:27:45.156Z,100.00
2019-01-26T01:30:16.781Z,100.00
2019-01-26T01:32:45.204Z,100.00
2019-01-26T01:35:13.660Z,100.00
2019-01-26T01:37:42.464Z,100.00
2019-01-26T01:40:13.511Z,100.00
2019-01-26T01:42:42.042Z,100.00
2019-01-26T01:45:14.149Z,100.00
2019-01-26T01:47:42.589Z,100.00
2019-01-26T01:50:11.186Z,100.00
2019-01-26T01:52:39.643Z,100.00
2019-01-26T01:55:10.464Z,100.00
2019-01-26T01:57:38.930Z,100.00
2019-01-26T02:00:18.918Z,100.00
2019-01-26T02:02:47.386Z,100.00
2019-01-26T02:05:15.849Z,100.00
2019-01-26T02:07:44.508Z,100.00
2019-01-26T02:10:15.970Z,100.00
2019-01-26T02:12:44.748Z,100.00
2019-01-26T02:15:14.268Z,100.00
2019-01-26T02:17:42.730Z,100.00
2019-01-26T02:20:20.175Z,100.00
2019-01-26T02:22:48.567Z,100.00
2019-01-26T02:25:17.026Z,100.00
2019-01-26T02:27:45.771Z,100.00
2019-01-26T02:30:20.296Z,100.00
2019-01-26T02:32:48.978Z,100.00
2019-01-26T02:35:17.533Z,100.00
2019-01-26T02:37:45.998Z,100.00
2019-01-26T02:40:16.332Z,100.00
2019-01-26T02:42:44.800Z,100.00
2019-01-26T02:45:14.983Z,100.00
2019-01-26T02:47:43.778Z,100.00
2019-01-26T02:50:17.258Z,100.00
2019-01-26T02:52:46.024Z,100.00
2019-01-26T02:55:14.553Z,100.00
2019-01-26T02:57:42.963Z,100.00
2019-01-26T03:00:17.340Z,100.00
2019-01-26T03:02:46.223Z,100.00
2019-01-26T03:05:14.760Z,100.00
2019-01-26T03:07:43.169Z,100.00
2019-01-26T03:10:17.251Z,100.00
2019-01-26T03:12:45.640Z,100.00
2019-01-26T03:15:17.431Z,100.00
2019-01-26T03:17:46.222Z,100.00
2019-01-26T03:20:16.261Z,100.00
2019-01-26T03:22:44.894Z,100.00
2019-01-26T03:25:15.150Z,100.00
2019-01-26T03:27:43.538Z,100.00
2019-01-26T03:30:14.944Z,100.00
2019-01-26T03:32:43.714Z,100.00
2019-01-26T03:35:12.271Z,100.00
2019-01-26T03:37:40.678Z,100.00
2019-01-26T03:40:12.681Z,100.00
2019-01-26T03:42:41.103Z,100.00
2019-01-26T03:45:11.824Z,100.00
2019-01-26T03:47:40.213Z,100.00
2019-01-26T03:50:11.127Z,100.00
2019-01-26T03:52:39.798Z,100.00
2019-01-26T03:55:11.045Z,100.00
2019-01-26T03:57:39.564Z,100.00
2019-01-26T04:00:16.780Z,100.00
2019-01-26T04:02:45.234Z,100.00
2019-01-26T04:05:14.074Z,100.00
2019-01-26T04:07:42.877Z,100.00
2019-01-26T04:10:13.715Z,100.00
2019-01-26T04:12:42.399Z,100.00
2019-01-26T04:15:13.949Z,100.00
2019-01-26T04:17:42.422Z,100.00
2019-01-26T04:20:13.455Z,100.00
2019-01-26T04:22:42.259Z,100.00
2019-01-26T04:25:11.149Z,100.00
2019-01-26T04:27:39.547Z,100.00
2019-01-26T04:30:14.038Z,100.00
2019-01-26T04:32:42.840Z,100.00
2019-01-26T04:35:11.626Z,100.00
2019-01-26T04:37:40.093Z,100.00
2019-01-26T04:40:11.965Z,100.00
2019-01-26T04:42:40.440Z,100.00
2019-01-26T04:45:17.883Z,100.00
2019-01-26T04:47:46.366Z,100.00
2019-01-26T04:50:16.790Z,100.00
2019-01-26T04:52:45.266Z,100.00
2019-01-26T04:55:14.397Z,100.00
2019-01-26T04:57:42.791Z,100.00
2019-01-26T05:00:19.990Z,100.00
2019-01-26T05:02:48.379Z,100.00
2019-01-26T05:05:17.296Z,100.00
2019-01-26T05:07:45.726Z,100.00
2019-01-26T05:10:16.986Z,100.00
2019-01-26T05:12:45.456Z,100.00
2019-01-26T05:15:15.183Z,100.00
2019-01-26T05:17:43.758Z,100.00
2019-01-26T05:20:14.994Z,100.00
2019-01-26T05:22:43.474Z,100.00
2019-01-26T05:25:12.134Z,100.00
2019-01-26T05:27:40.550Z,100.00
2019-01-26T05:30:14.645Z,100.00
2019-01-26T05:32:43.032Z,100.00
2019-01-26T05:35:11.514Z,100.00
2019-01-26T05:37:39.910Z,100.00
2019-01-26T05:40:16.590Z,100.00
2019-01-26T05:42:45.047Z,100.00
2019-01-26T05:45:21.186Z,100.00
2019-01-26T05:47:49.913Z,100.00
2019-01-26T05:50:22.330Z,100.00
2019-01-26T05:52:50.740Z,100.00
2019-01-26T05:55:19.199Z,100.00
2019-01-26T05:57:48.130Z,100.00
2019-01-26T06:00:29.112Z,100.00
2019-01-26T06:02:57.644Z,100.00
2019-01-26T06:05:26.040Z,100.00
2019-01-26T06:07:54.441Z,100.00
2019-01-26T06:10:42.326Z,100.00
2019-01-26T06:13:10.967Z,100.00
2019-01-26T06:15:39.380Z,100.00
2019-01-26T06:18:07.858Z,100.00
2019-01-26T06:20:36.259Z,100.00
2019-01-26T06:23:04.658Z,100.00
2019-01-26T06:25:33.390Z,100.00
2019-01-26T06:28:01.784Z,100.00
2019-01-26T06:31:10.106Z,100.00
2019-01-26T06:33:38.756Z,100.00
2019-01-26T06:36:07.209Z,100.00
2019-01-26T06:38:35.607Z,100.00
2019-01-26T06:41:04.065Z,100.00
2019-01-26T06:43:32.464Z,100.00
2019-01-26T06:46:00.861Z,100.00
2019-01-26T06:48:29.331Z,100.00
2019-01-26T06:50:57.721Z,100.00
2019-01-26T06:53:26.111Z,100.00
2019-01-26T06:55:54.513Z,100.00
2019-01-26T06:58:22.904Z,100.00
2019-01-26T07:00:51.309Z,100.00
2019-01-26T07:03:19.959Z,100.00
2019-01-26T07:05:50.007Z,100.00
2019-01-26T07:08:18.399Z,100.00
2019-01-26T07:10:46.788Z,100.00
2019-01-26T07:13:15.525Z,100.00
2019-01-26T07:15:43.920Z,100.00
2019-01-26T07:18:12.812Z,100.00
2019-01-26T07:20:41.206Z,100.00
2019-01-26T07:23:09.965Z,100.00
2019-01-26T07:25:38.360Z,100.00
2019-01-26T07:28:06.755Z,100.00
2019-01-26T07:30:35.154Z,100.00
2019-01-26T07:33:03.616Z,100.00
2019-01-26T07:35:32.099Z,100.00
2019-01-26T07:38:01.152Z,100.00
2019-01-26T07:40:30.047Z,100.00
2019-01-26T07:42:58.448Z,100.00
2019-01-26T07:45:27.213Z,100.00
2019-01-26T07:47:55.618Z,100.00
2019-01-26T07:50:26.758Z,100.00
2019-01-26T07:52:55.233Z,100.00
2019-01-26T07:55:23.702Z,100.00
2019-01-26T07:57:52.106Z,100.00
2019-01-26T08:00:26.239Z,100.00
2019-01-26T08:02:54.638Z,100.00
2019-01-26T08:05:23.371Z,100.00
2019-01-26T08:07:52.030Z,100.00
2019-01-26T08:10:22.577Z,100.00
2019-01-26T08:12:51.306Z,100.00
2019-01-26T08:15:28.446Z,100.00
2019-01-26T08:17:57.128Z,100.00
2019-01-26T08:20:25.919Z,100.00
2019-01-26T08:22:54.466Z,100.00
2019-01-26T08:25:23.192Z,100.00
2019-01-26T08:27:51.594Z,100.00
2019-01-26T08:30:24.164Z,100.00
2019-01-26T08:32:52.634Z,100.00
2019-01-26T08:35:21.269Z,100.00
2019-01-26T08:37:50.708Z,100.00
2019-01-26T08:40:21.337Z,100.00
2019-01-26T08:42:50.217Z,100.00
2019-01-26T08:45:19.020Z,100.00
2019-01-26T08:47:47.788Z,100.00
2019-01-26T08:50:18.633Z,100.00
2019-01-26T08:52:47.028Z,100.00
2019-01-26T08:55:18.283Z,100.00
2019-01-26T08:57:46.215Z,100.00
2019-01-26T09:00:20.103Z,100.00
2019-01-26T09:02:53.865Z,100.00
2019-01-26T09:05:36.015Z,100.00
2019-01-26T09:08:04.479Z,100.00
2019-01-26T09:10:32.961Z,100.00
2019-01-26T09:13:01.354Z,100.00
2019-01-26T09:15:29.751Z,100.00
2019-01-26T09:17:58.163Z,100.00
2019-01-26T09:20:26.557Z,100.00
2019-01-26T09:22:55.215Z,100.00
2019-01-26T09:25:23.612Z,100.00
2019-01-26T09:27:52.258Z,100.00
2019-01-26T09:30:23.774Z,100.00
2019-01-26T09:32:52.421Z,100.00
2019-01-26T09:35:20.827Z,100.00
2019-01-26T09:37:49.482Z,100.00
2019-01-26T09:40:22.883Z,100.00
2019-01-26T09:42:51.350Z,100.00
2019-01-26T09:45:20.885Z,100.00
2019-01-26T09:47:49.677Z,100.00
2019-01-26T09:50:19.795Z,100.00
2019-01-26T09:52:48.371Z,100.00
2019-01-26T09:55:18.890Z,100.00
2019-01-26T09:57:47.424Z,100.00
2019-01-26T10:00:21.165Z,100.00
2019-01-26T10:02:49.632Z,100.00
2019-01-26T10:05:18.782Z,100.00
2019-01-26T10:07:47.845Z,100.00
2019-01-26T10:10:17.288Z,100.00
2019-01-26T10:12:45.755Z,100.00
2019-01-26T10:15:20.222Z,100.00
2019-01-26T10:17:48.692Z,100.00
2019-01-26T10:20:31.998Z,100.00
2019-01-26T10:23:00.404Z,100.00
2019-01-26T10:25:29.130Z,100.00
2019-01-26T10:27:57.594Z,100.00
2019-01-26T10:30:33.467Z,100.00
2019-01-26T10:33:01.843Z,100.00
2019-01-26T10:35:34.934Z,100.00
2019-01-26T10:38:03.390Z,100.00
2019-01-26T10:40:52.167Z,100.00
2019-01-26T10:43:22.205Z,100.00
2019-01-26T10:45:50.618Z,100.00
2019-01-26T10:48:19.014Z,100.00
2019-01-26T10:50:47.423Z,100.00
2019-01-26T10:53:15.821Z,100.00
2019-01-26T10:55:44.490Z,100.00
2019-01-26T10:58:12.896Z,100.00
2019-01-26T11:00:41.289Z,100.00
2019-01-26T11:03:10.033Z,99.09
2019-01-26T11:05:38.422Z,99.11
2019-01-26T11:08:06.822Z,98.11
2019-01-26T11:10:35.284Z,98.00
2019-01-26T11:13:03.832Z,96.15
2019-01-26T11:15:32.225Z,96.27
2019-01-26T11:18:00.916Z,96.24
2019-01-26T11:20:29.450Z,96.17
2019-01-26T11:22:57.832Z,96.88
2019-01-26T11:25:26.569Z,97.02
2019-01-26T11:27:55.015Z,98.04
2019-01-26T11:30:25.041Z,100.00
2019-01-26T11:32:53.438Z,100.00
2019-01-26T11:35:26.154Z,100.00
2019-01-26T11:37:54.552Z,100.00
2019-01-26T11:40:22.997Z,99.80
2019-01-26T11:42:52.286Z,100.00
2019-01-26T11:45:28.550Z,99.57
2019-01-26T11:48:04.932Z,99.45
2019-01-26T11:50:34.982Z,99.35
2019-01-26T11:53:03.822Z,99.77
2019-01-26T11:55:34.350Z,99.51
2019-01-26T11:58:03.034Z,99.71
2019-01-26T12:00:41.788Z,97.20
2019-01-26T12:03:12.187Z,96.01
2019-01-26T12:05:44.962Z,95.46
2019-01-26T12:08:13.650Z,94.26
2019-01-26T12:10:43.274Z,94.21
2019-01-26T12:13:11.727Z,92.16
2019-01-26T12:15:40.110Z,93.01
2019-01-26T12:18:08.905Z,92.63
2019-01-26T12:20:37.355Z,91.85
2019-01-26T12:23:05.736Z,93.49
2019-01-26T12:25:34.122Z,95.54
2019-01-26T12:28:02.501Z,95.33
2019-01-26T12:30:31.210Z,98.11
2019-01-26T12:32:59.589Z,99.79
2019-01-26T12:35:27.970Z,98.36
2019-01-26T12:37:56.366Z,99.39
2019-01-26T12:40:24.752Z,100.00
2019-01-26T12:42:53.128Z,99.18
2019-01-26T12:45:22.510Z,99.46
2019-01-26T12:47:51.030Z,100.00
2019-01-26T12:50:19.488Z,99.94
2019-01-26T12:52:48.010Z,100.00
2019-01-26T12:55:17.537Z,100.00
2019-01-26T12:57:45.933Z,100.00
2019-01-26T13:00:19.975Z,100.00
2019-01-26T13:02:49.495Z,100.00
2019-01-26T13:05:18.140Z,100.00
2019-01-26T13:07:46.586Z,99.93
2019-01-26T13:10:27.363Z,100.00
2019-01-26T13:12:56.079Z,100.00
2019-01-26T13:15:24.866Z,100.00
2019-01-26T13:17:53.344Z,100.00
2019-01-26T13:20:23.545Z,100.00
2019-01-26T13:22:52.008Z,100.00
2019-01-26T13:25:20.528Z,100.00
2019-01-26T13:27:49.005Z,100.00
2019-01-26T13:30:25.059Z,100.00
2019-01-26T13:32:53.455Z,100.00
2019-01-26T13:35:21.907Z,100.00
2019-01-26T13:37:50.362Z,100.00
2019-01-26T13:40:27.483Z,100.00
2019-01-26T13:42:55.939Z,100.00
2019-01-26T13:45:24.678Z,100.00
2019-01-26T13:47:53.146Z,100.00
2019-01-26T13:50:21.529Z,100.00
2019-01-26T13:52:49.924Z,100.00
2019-01-26T13:55:20.696Z,100.00
2019-01-26T13:57:49.100Z,100.00
2019-01-26T14:00:23.242Z,100.00
2019-01-26T14:02:51.635Z,100.00
2019-01-26T14:05:20.297Z,100.00
2019-01-26T14:07:49.081Z,100.00
2019-01-26T14:10:23.506Z,100.00
2019-01-26T14:12:52.189Z,100.00
2019-01-26T14:15:22.434Z,100.00
2019-01-26T14:17:51.096Z,100.00
2019-01-26T14:20:24.671Z,100.00
2019-01-26T14:22:53.311Z,100.00
2019-01-26T14:25:21.776Z,100.00
2019-01-26T14:27:50.375Z,100.00
2019-01-26T14:30:27.531Z,100.00
2019-01-26T14:32:55.947Z,100.00
2019-01-26T14:35:24.399Z,100.00
2019-01-26T14:37:52.797Z,100.00
2019-01-26T14:40:21.338Z,100.00
2019-01-26T14:42:54.258Z,100.00
2019-01-26T14:45:19.915Z,100.00
2019-01-26T14:47:48.372Z,100.00
2019-01-26T14:50:18.206Z,100.00
2019-01-26T14:52:47.240Z,100.00
2019-01-26T14:55:21.492Z,100.00
2019-01-26T14:57:49.967Z,100.00
2019-01-26T15:00:29.581Z,100.00
2019-01-26T15:02:58.289Z,100.00
2019-01-26T15:05:27.157Z,100.00
2019-01-26T15:07:56.067Z,100.00
2019-01-26T15:10:24.591Z,100.00
2019-01-26T15:12:53.105Z,100.00
2019-01-26T15:15:21.949Z,100.00
2019-01-26T15:17:50.339Z,100.00
2019-01-26T15:20:21.821Z,100.00
2019-01-26T15:22:50.521Z,100.00
2019-01-26T15:25:18.914Z,100.00
2019-01-26T15:27:47.316Z,100.00
2019-01-26T15:30:24.468Z,100.00
2019-01-26T15:32:52.946Z,100.00
2019-01-26T15:35:21.351Z,100.00
2019-01-26T15:37:49.767Z,100.00
2019-01-26T15:40:18.155Z,100.00
2019-01-26T15:42:46.869Z,100.00
2019-01-26T15:45:18.727Z,100.00
2019-01-26T15:47:47.196Z,100.00
2019-01-26T15:50:16.712Z,100.00
2019-01-26T15:52:45.169Z,100.00
2019-01-26T15:55:25.181Z,100.00
2019-01-26T15:57:53.652Z,100.00
2019-01-26T16:00:27.945Z,100.00
2019-01-26T16:02:56.671Z,100.00
2019-01-26T16:05:25.422Z,100.00
2019-01-26T16:07:54.165Z,100.00
2019-01-26T16:10:24.299Z,100.00
2019-01-26T16:12:53.116Z,100.00
2019-01-26T16:15:27.257Z,100.00
2019-01-26T16:17:55.721Z,100.00
2019-01-26T16:20:24.468Z,100.00
2019-01-26T16:22:52.868Z,100.00
2019-01-26T16:25:21.668Z,100.00
2019-01-26T16:27:50.062Z,100.00
2019-01-26T16:30:21.613Z,100.00
2019-01-26T16:32:50.081Z,100.00
2019-01-26T16:35:19.377Z,100.00
2019-01-26T16:37:47.915Z,100.00
2019-01-26T16:40:19.374Z,100.00
2019-01-26T16:42:47.764Z,100.00
2019-01-26T16:45:24.915Z,100.00
2019-01-26T16:47:53.314Z,100.00
2019-01-26T16:50:27.682Z,100.00
2019-01-26T16:52:54.716Z,100.00
2019-01-26T16:55:23.735Z,100.00
2019-01-26T16:57:52.423Z,100.00
2019-01-26T17:00:39.082Z,100.00
2019-01-26T17:03:07.640Z,100.00
2019-01-26T17:05:36.271Z,100.00
2019-01-26T17:08:06.087Z,100.00
2019-01-26T17:10:35.007Z,100.00
2019-01-26T17:13:03.464Z,100.00
2019-01-26T17:15:31.871Z,100.00
2019-01-26T17:18:00.727Z,100.00
2019-01-26T17:20:37.694Z,100.00
2019-01-26T17:23:06.230Z,100.00
2019-01-26T17:25:34.719Z,100.00
2019-01-26T17:28:03.102Z,100.00
2019-01-26T17:30:34.283Z,100.00
2019-01-26T17:33:07.302Z,100.00
2019-01-26T17:35:32.943Z,100.00
2019-01-26T17:38:01.685Z,100.00
2019-01-26T17:40:30.494Z,100.00
2019-01-26T17:42:58.893Z,100.00
2019-01-26T17:45:27.348Z,100.00
2019-01-26T17:47:55.752Z,100.00
2019-01-26T17:50:26.180Z,100.00
2019-01-26T17:52:54.575Z,100.00
2019-01-26T17:55:23.332Z,100.00
2019-01-26T17:57:51.709Z,100.00
2019-01-26T18:00:36.033Z,100.00
2019-01-26T18:03:04.498Z,100.00
2019-01-26T18:05:33.751Z,100.00
2019-01-26T18:08:02.137Z,100.00
2019-01-26T18:10:30.533Z,100.00
2019-01-26T18:12:58.941Z,100.00
2019-01-26T18:15:27.741Z,100.00
2019-01-26T18:17:56.154Z,100.00
2019-01-26T18:20:29.322Z,100.00
2019-01-26T18:22:58.389Z,100.00
2019-01-26T18:25:30.899Z,100.00
2019-01-26T18:27:59.288Z,100.00
2019-01-26T18:30:32.252Z,100.00
2019-01-26T18:33:00.937Z,100.00
2019-01-26T18:35:29.722Z,100.00
2019-01-26T18:37:58.133Z,100.00
2019-01-26T18:41:06.674Z,100.00
2019-01-26T18:43:35.087Z,100.00
2019-01-26T18:49:11.558Z,100.00
2019-01-26T18:51:40.365Z,100.00
2019-01-26T18:54:09.144Z,100.00
2019-01-26T18:56:37.616Z,100.00
2019-01-26T18:59:06.007Z,100.00
2019-01-26T19:01:34.418Z,100.00
2019-01-26T19:04:42.718Z,100.00
2019-01-26T19:07:11.133Z,100.00
2019-01-26T19:09:39.771Z,100.00
2019-01-26T19:12:08.166Z,100.00
2019-01-26T19:14:36.588Z,100.00
2019-01-26T19:17:05.639Z,100.00
2019-01-26T19:19:34.053Z,100.00
2019-01-26T19:22:02.452Z,100.00
2019-01-26T19:24:31.011Z,100.00
2019-01-26T19:26:59.423Z,100.00
2019-01-26T19:29:27.831Z,100.00
2019-01-26T19:31:56.308Z,100.00
2019-01-26T19:34:24.949Z,100.00
2019-01-26T19:36:53.412Z,100.00
2019-01-26T19:39:22.165Z,100.00
2019-01-26T19:41:50.560Z,100.00
2019-01-26T19:44:19.009Z,100.00
2019-01-26T19:46:47.659Z,100.00
2019-01-26T19:49:16.075Z,100.00
2019-01-26T19:51:44.471Z,100.00
2019-01-26T19:54:32.225Z,100.00
2019-01-26T19:57:00.676Z,100.00
2019-01-26T19:59:29.353Z,100.00
2019-01-26T20:01:57.756Z,100.00
2019-01-26T20:04:26.162Z,100.00
2019-01-26T20:06:54.980Z,100.00
2019-01-26T20:09:23.372Z,100.00
2019-01-26T20:11:52.024Z,100.00
2019-01-26T20:14:20.443Z,100.00
2019-01-26T20:16:48.855Z,100.00
2019-01-26T20:19:17.250Z,100.00
2019-01-26T20:21:45.639Z,100.00
2019-01-26T20:24:14.283Z,100.00
2019-01-26T20:26:42.692Z,100.00
2019-01-26T20:29:11.160Z,100.00
2019-01-26T20:31:39.565Z,100.00
2019-01-26T20:34:07.962Z,100.00
2019-01-26T20:36:36.375Z,100.00
2019-01-26T20:39:44.674Z,100.00
2019-01-26T20:42:13.400Z,100.00
2019-01-26T20:44:42.036Z,100.00
2019-01-26T20:47:10.503Z,100.00
2019-01-26T20:49:38.986Z,100.00
2019-01-26T20:52:07.455Z,100.00
2019-01-26T20:54:37.431Z,100.00
2019-01-26T20:57:06.148Z,100.00
2019-01-26T20:59:34.800Z,100.00
2019-01-26T21:02:03.460Z,100.00
2019-01-26T21:04:32.173Z,100.00
2019-01-26T21:07:00.825Z,100.00
2019-01-26T21:09:29.223Z,100.00
2019-01-26T21:11:57.640Z,100.00
2019-01-26T21:14:26.033Z,100.00
2019-01-26T21:16:54.430Z,100.00
2019-01-26T21:19:23.163Z,100.00
2019-01-26T21:21:51.626Z,100.00
2019-01-26T21:24:20.033Z,100.00
2019-01-26T21:26:48.707Z,100.00
2019-01-26T21:29:17.158Z,100.00
2019-01-26T21:31:45.810Z,100.00
2019-01-26T21:34:33.546Z,100.00
2019-01-26T21:37:01.961Z,100.00
2019-01-26T21:39:30.673Z,100.00
2019-01-26T21:41:59.376Z,100.00
2019-01-26T21:44:27.775Z,100.00
2019-01-26T21:46:56.233Z,100.00
2019-01-26T21:49:24.650Z,100.00
2019-01-26T21:51:53.111Z,100.00
2019-01-26T21:54:21.535Z,100.00
2019-01-26T21:56:49.933Z,100.00
2019-01-26T21:59:18.331Z,100.00
2019-01-26T22:01:46.802Z,100.00
2019-01-26T22:04:15.200Z,100.00
2019-01-26T22:06:43.611Z,100.00
2019-01-26T22:09:31.339Z,100.00
2019-01-26T22:14:33.717Z,100.00
2019-01-26T22:17:02.392Z,100.00
2019-01-26T22:19:30.809Z,100.00
2019-01-26T22:21:59.278Z,100.00
2019-01-26T22:24:27.689Z,100.00
2019-01-26T22:26:56.126Z,100.00
2019-01-26T22:29:31.078Z,100.00
2019-01-26T22:31:54.635Z,100.00
2019-01-26T22:34:23.373Z,100.00
2019-01-26T22:36:51.765Z,100.00
2019-01-26T22:39:20.169Z,100.00
2019-01-26T22:41:48.567Z,100.00
2019-01-26T22:44:16.959Z,100.00
2019-01-26T22:46:45.374Z,100.00
2019-01-26T22:49:13.769Z,100.00
2019-01-26T22:51:42.175Z,100.00
2019-01-26T22:54:10.573Z,100.00
2019-01-26T22:56:38.967Z,100.00
2019-01-26T22:59:07.640Z,100.00
2019-01-26T23:01:36.544Z,100.00
2019-01-26T23:04:13.716Z,100.00
2019-01-26T23:06:51.312Z,100.00
2019-01-26T23:09:29.111Z,100.00
2019-01-26T23:12:15.814Z,100.00
2019-01-26T23:14:53.428Z,100.00
2019-01-26T23:17:46.263Z,100.00
2019-01-26T23:20:17.973Z,100.00
2019-01-26T23:23:04.651Z,100.00
2019-01-26T23:25:36.111Z,100.00
2019-01-26T23:28:22.424Z,100.00
2019-01-26T23:31:11.519Z,100.00
2019-01-26T23:33:40.333Z,100.00
2019-01-26T23:36:08.810Z,100.00
2019-01-26T23:38:37.206Z,100.00
2019-01-26T23:41:07.416Z,100.00
2019-01-26T23:43:35.849Z,100.00
2019-01-26T23:46:05.091Z,100.00
2019-01-26T23:48:33.500Z,100.00
2019-01-26T23:51:01.888Z,100.00
2019-01-26T23:53:30.439Z,100.00
2019-01-26T23:55:58.833Z,100.00
2019-01-26T23:58:27.229Z,100.00
